sensor_id;sensor_type;location;lat;lon;timestamp;pressure;altitude;pressure_sealevel;temperature;humidity
69402;BME280;56589;51.992;5.924;2023-01-25T00:02:04;103184.66;;;0.19;74.45
69402;BME280;56589;51.992;5.924;2023-01-25T00:04:29;103182.03;;;0.17;74.39
69402;BME280;56589;51.992;5.924;2023-01-25T00:06:56;103175.06;;;0.13;74.56
69402;BME280;56589;51.992;5.924;2023-01-25T00:09:23;103169.88;;;0.12;74.68
69402;BME280;56589;51.992;5.924;2023-01-25T00:11:52;103172.50;;;0.13;74.54
69402;BME280;56589;51.992;5.924;2023-01-25T00:14:19;103167.31;;;0.12;74.52
69402;BME280;56589;51.992;5.924;2023-01-25T00:16:46;103168.16;;;0.11;74.02
69402;BME280;56589;51.992;5.924;2023-01-25T00:19:12;103164.63;;;0.05;74.38
69402;BME280;56589;51.992;5.924;2023-01-25T00:21:38;103157.72;;;0.04;74.49
69402;BME280;56589;51.992;5.924;2023-01-25T00:24:05;103159.44;;;0.05;74.82
69402;BME280;56589;51.992;5.924;2023-01-25T00:26:32;103162.91;;;0.06;74.20
69402;BME280;56589;51.992;5.924;2023-01-25T00:29:02;103160.28;;;0.04;74.42
69402;BME280;56589;51.992;5.924;2023-01-25T00:31:36;103158.47;;;-0.01;74.23
69402;BME280;56589;51.992;5.924;2023-01-25T00:34:36;103148.94;;;-0.04;74.64
69402;BME280;56589;51.992;5.924;2023-01-25T00:37:22;103144.63;;;-0.03;74.85
69402;BME280;56589;51.992;5.924;2023-01-25T00:39:53;103143.78;;;-0.02;74.46
69402;BME280;56589;51.992;5.924;2023-01-25T00:42:20;103151.59;;;0.01;74.93
69402;BME280;56589;51.992;5.924;2023-01-25T00:44:48;103142.22;;;0.04;74.92
69402;BME280;56589;51.992;5.924;2023-01-25T00:47:16;103143.09;;;0.05;74.70
69402;BME280;56589;51.992;5.924;2023-01-25T00:49:44;103140.50;;;0.05;74.72
69402;BME280;56589;51.992;5.924;2023-01-25T00:52:11;103141.28;;;0.01;74.60
69402;BME280;56589;51.992;5.924;2023-01-25T00:54:37;103142.94;;;-0.03;74.74
69402;BME280;56589;51.992;5.924;2023-01-25T00:57:04;103141.19;;;-0.04;74.90
69402;BME280;56589;51.992;5.924;2023-01-25T00:59:30;103138.69;;;-0.01;74.62
69402;BME280;56589;51.992;5.924;2023-01-25T01:01:59;103142.13;;;-0.00;74.58
69402;BME280;56589;51.992;5.924;2023-01-25T01:04:27;103144.69;;;-0.02;74.28
69402;BME280;56589;51.992;5.924;2023-01-25T01:06:54;103140.31;;;-0.04;74.53
69402;BME280;56589;51.992;5.924;2023-01-25T01:09:21;103140.31;;;-0.06;74.63
69402;BME280;56589;51.992;5.924;2023-01-25T01:11:49;103137.75;;;-0.04;74.29
69402;BME280;56589;51.992;5.924;2023-01-25T01:14:16;103132.66;;;-0.01;74.52
69402;BME280;56589;51.992;5.924;2023-01-25T01:16:43;103125.78;;;-0.01;74.48
69402;BME280;56589;51.992;5.924;2023-01-25T01:19:13;103140.31;;;-0.06;74.73
69402;BME280;56589;51.992;5.924;2023-01-25T01:21:41;103136.75;;;-0.11;74.22
69402;BME280;56589;51.992;5.924;2023-01-25T01:24:08;103135.03;;;-0.12;74.54
69402;BME280;56589;51.992;5.924;2023-01-25T01:26:35;103136.75;;;-0.12;74.59
69402;BME280;56589;51.992;5.924;2023-01-25T01:29:01;103146.13;;;-0.17;74.52
69402;BME280;56589;51.992;5.924;2023-01-25T01:31:28;103142.56;;;-0.23;74.65
69402;BME280;56589;51.992;5.924;2023-01-25T01:33:55;103145.16;;;-0.21;74.85
69402;BME280;56589;51.992;5.924;2023-01-25T01:36:27;103139.19;;;-0.20;75.04
69402;BME280;56589;51.992;5.924;2023-01-25T01:38:56;103136.63;;;-0.18;74.71
69402;BME280;56589;51.992;5.924;2023-01-25T01:41:24;103134.03;;;-0.20;74.49
69402;BME280;56589;51.992;5.924;2023-01-25T01:43:51;103134.91;;;-0.18;74.55
69402;BME280;56589;51.992;5.924;2023-01-25T01:46:21;103129.78;;;-0.15;74.93
69402;BME280;56589;51.992;5.924;2023-01-25T01:48:54;103130.72;;;-0.11;74.65
69402;BME280;56589;51.992;5.924;2023-01-25T01:51:39;103136.84;;;-0.08;74.42
69402;BME280;56589;51.992;5.924;2023-01-25T01:54:13;103127.41;;;-0.06;74.35
69402;BME280;56589;51.992;5.924;2023-01-25T01:56:46;103130.00;;;-0.03;74.77
69402;BME280;56589;51.992;5.924;2023-01-25T01:59:18;103131.72;;;-0.03;74.71
69402;BME280;56589;51.992;5.924;2023-01-25T02:01:46;103123.06;;;-0.07;74.77
69402;BME280;56589;51.992;5.924;2023-01-25T02:04:13;103123.88;;;-0.09;74.94
69402;BME280;56589;51.992;5.924;2023-01-25T02:06:49;103128.25;;;-0.07;74.85
69402;BME280;56589;51.992;5.924;2023-01-25T02:09:22;103123.00;;;-0.11;74.76
69402;BME280;56589;51.992;5.924;2023-01-25T02:11:53;103116.88;;;-0.16;74.60
69402;BME280;56589;51.992;5.924;2023-01-25T02:14:22;103116.88;;;-0.16;74.78
69402;BME280;56589;51.992;5.924;2023-01-25T02:16:48;103113.50;;;-0.12;74.98
69402;BME280;56589;51.992;5.924;2023-01-25T02:19:22;103107.59;;;-0.07;74.71
69402;BME280;56589;51.992;5.924;2023-01-25T02:22:08;103111.06;;;-0.03;75.11
69402;BME280;56589;51.992;5.924;2023-01-25T02:24:39;103101.59;;;-0.03;74.83
69402;BME280;56589;51.992;5.924;2023-01-25T02:27:15;103096.41;;;-0.06;74.93
69402;BME280;56589;51.992;5.924;2023-01-25T02:29:46;103094.59;;;-0.10;74.86
69402;BME280;56589;51.992;5.924;2023-01-25T02:32:13;103103.97;;;-0.15;74.68
69402;BME280;56589;51.992;5.924;2023-01-25T02:34:40;103098.78;;;-0.16;75.02
69402;BME280;56589;51.992;5.924;2023-01-25T02:37:07;103098.88;;;-0.13;74.84
69402;BME280;56589;51.992;5.924;2023-01-25T02:39:38;103097.22;;;-0.08;74.83
69402;BME280;56589;51.992;5.924;2023-01-25T02:42:06;103094.63;;;-0.08;74.87
69402;BME280;56589;51.992;5.924;2023-01-25T02:44:35;103092.03;;;-0.10;74.88
69402;BME280;56589;51.992;5.924;2023-01-25T02:47:03;103093.75;;;-0.10;74.79
69402;BME280;56589;51.992;5.924;2023-01-25T02:49:29;103087.72;;;-0.09;75.02
69402;BME280;56589;51.992;5.924;2023-01-25T02:51:58;103085.19;;;-0.08;74.86
69402;BME280;56589;51.992;5.924;2023-01-25T02:54:25;103097.28;;;-0.04;74.58
69402;BME280;56589;51.992;5.924;2023-01-25T02:56:51;103094.72;;;-0.02;74.72
69402;BME280;56589;51.992;5.924;2023-01-25T02:59:18;103091.25;;;-0.04;74.50
69402;BME280;56589;51.992;5.924;2023-01-25T03:01:49;103090.41;;;-0.03;74.77
69402;BME280;56589;51.992;5.924;2023-01-25T03:04:17;103087.88;;;-0.02;74.61
69402;BME280;56589;51.992;5.924;2023-01-25T03:06:43;103084.44;;;-0.01;74.83
69402;BME280;56589;51.992;5.924;2023-01-25T03:09:10;103086.19;;;0.00;74.42
69402;BME280;56589;51.992;5.924;2023-01-25T03:11:37;103075.84;;;0.00;74.80
69402;BME280;56589;51.992;5.924;2023-01-25T03:14:03;103075.84;;;-0.01;74.62
69402;BME280;56589;51.992;5.924;2023-01-25T03:16:29;103072.31;;;-0.05;74.66
69402;BME280;56589;51.992;5.924;2023-01-25T03:18:58;103070.59;;;-0.04;74.86
69402;BME280;56589;51.992;5.924;2023-01-25T03:21:25;103074.97;;;-0.02;74.94
69402;BME280;56589;51.992;5.924;2023-01-25T03:23:54;103062.88;;;-0.03;75.04
69402;BME280;56589;51.992;5.924;2023-01-25T03:26:23;103057.75;;;-0.01;75.01
69402;BME280;56589;51.992;5.924;2023-01-25T03:28:50;103050.88;;;-0.01;75.00
69402;BME280;56589;51.992;5.924;2023-01-25T03:31:17;103049.16;;;-0.02;75.06
69402;BME280;56589;51.992;5.924;2023-01-25T03:33:44;103038.84;;;-0.00;74.67
69402;BME280;56589;51.992;5.924;2023-01-25T03:36:13;103042.31;;;0.03;74.62
69402;BME280;56589;51.992;5.924;2023-01-25T03:38:39;103038.91;;;0.04;75.03
69402;BME280;56589;51.992;5.924;2023-01-25T03:41:05;103044.91;;;0.03;75.02
69402;BME280;56589;51.992;5.924;2023-01-25T03:43:31;103045.75;;;0.04;74.61
69402;BME280;56589;51.992;5.924;2023-01-25T03:45:59;103045.75;;;0.04;74.83
69402;BME280;56589;51.992;5.924;2023-01-25T03:48:27;103046.56;;;-0.00;74.67
69402;BME280;56589;51.992;5.924;2023-01-25T03:50:56;103041.41;;;-0.00;74.80
69402;BME280;56589;51.992;5.924;2023-01-25T03:53:27;103046.63;;;0.03;75.00
69402;BME280;56589;51.992;5.924;2023-01-25T03:55:55;103032.75;;;-0.02;74.99
69402;BME280;56589;51.992;5.924;2023-01-25T03:58:24;103035.38;;;-0.01;74.54
69402;BME280;56589;51.992;5.924;2023-01-25T04:00:53;103034.53;;;0.00;74.80
69402;BME280;56589;51.992;5.924;2023-01-25T04:03:22;103035.38;;;-0.01;74.63
69402;BME280;56589;51.992;5.924;2023-01-25T04:05:51;103031.09;;;0.01;74.54
69402;BME280;56589;51.992;5.924;2023-01-25T04:08:20;103028.53;;;0.01;74.75
69402;BME280;56589;51.992;5.924;2023-01-25T04:10:54;103030.13;;;-0.07;74.65
69402;BME280;56589;51.992;5.924;2023-01-25T04:13:23;103031.78;;;-0.10;74.77
69402;BME280;56589;51.992;5.924;2023-01-25T04:15:50;103027.47;;;-0.11;74.58
69402;BME280;56589;51.992;5.924;2023-01-25T04:18:18;103024.88;;;-0.10;74.66
69402;BME280;56589;51.992;5.924;2023-01-25T04:20:45;103016.28;;;-0.09;74.72
69402;BME280;56589;51.992;5.924;2023-01-25T04:23:16;103013.69;;;-0.10;74.45
69402;BME280;56589;51.992;5.924;2023-01-25T04:25:42;103013.69;;;-0.10;74.44
69402;BME280;56589;51.992;5.924;2023-01-25T04:28:11;103011.09;;;-0.12;74.70
69402;BME280;56589;51.992;5.924;2023-01-25T04:30:37;103011.97;;;-0.11;74.41
69402;BME280;56589;51.992;5.924;2023-01-25T04:33:03;103005.06;;;-0.14;74.92
69402;BME280;56589;51.992;5.924;2023-01-25T04:35:30;102997.31;;;-0.14;74.62
69402;BME280;56589;51.992;5.924;2023-01-25T04:37:57;103003.16;;;-0.23;74.23
69402;BME280;56589;51.992;5.924;2023-01-25T04:40:24;103002.22;;;-0.28;74.87
69402;BME280;56589;51.992;5.924;2023-01-25T04:42:50;103006.59;;;-0.25;74.94
69402;BME280;56589;51.992;5.924;2023-01-25T04:45:20;103006.63;;;-0.22;75.05
69402;BME280;56589;51.992;5.924;2023-01-25T04:47:48;103005.81;;;-0.20;74.78
69402;BME280;56589;51.992;5.924;2023-01-25T04:50:15;103004.13;;;-0.17;74.80
69402;BME280;56589;51.992;5.924;2023-01-25T04:52:41;103000.72;;;-0.15;74.58
69402;BME280;56589;51.992;5.924;2023-01-25T04:55:08;102993.81;;;-0.16;74.58
69402;BME280;56589;51.992;5.924;2023-01-25T04:57:34;102992.09;;;-0.17;74.45
69402;BME280;56589;51.992;5.924;2023-01-25T05:00:00;102990.34;;;-0.18;74.60
69402;BME280;56589;51.992;5.924;2023-01-25T05:02:30;102993.72;;;-0.21;74.95
69402;BME280;56589;51.992;5.924;2023-01-25T05:04:57;102998.94;;;-0.19;74.68
69402;BME280;56589;51.992;5.924;2023-01-25T05:07:22;102984.31;;;-0.18;74.55
69402;BME280;56589;51.992;5.924;2023-01-25T05:09:49;102982.59;;;-0.18;74.90
69402;BME280;56589;51.992;5.924;2023-01-25T05:12:15;102986.97;;;-0.14;74.55
69402;BME280;56589;51.992;5.924;2023-01-25T05:14:41;102981.78;;;-0.15;74.80
69402;BME280;56589;51.992;5.924;2023-01-25T05:17:08;102975.75;;;-0.14;74.63
69402;BME280;56589;51.992;5.924;2023-01-25T05:19:36;102968.84;;;-0.15;74.73
69402;BME280;56589;51.992;5.924;2023-01-25T05:22:02;102968.91;;;-0.14;74.78
69402;BME280;56589;51.992;5.924;2023-01-25T05:24:30;102970.59;;;-0.14;74.56
69402;BME280;56589;51.992;5.924;2023-01-25T05:26:57;102972.31;;;-0.15;74.73
69402;BME280;56589;51.992;5.924;2023-01-25T05:29:26;102979.19;;;-0.15;74.65
69402;BME280;56589;51.992;5.924;2023-01-25T05:31:52;102969.69;;;-0.18;74.34
69402;BME280;56589;51.992;5.924;2023-01-25T05:34:18;102980.00;;;-0.20;74.70
69402;BME280;56589;51.992;5.924;2023-01-25T05:36:49;102978.28;;;-0.19;74.51
69402;BME280;56589;51.992;5.924;2023-01-25T05:39:17;102984.25;;;-0.22;74.88
69402;BME280;56589;51.992;5.924;2023-01-25T05:41:43;102979.06;;;-0.23;74.61
69402;BME280;56589;51.992;5.924;2023-01-25T05:44:09;102975.63;;;-0.24;74.90
69402;BME280;56589;51.992;5.924;2023-01-25T05:46:35;102972.16;;;-0.26;74.44
69402;BME280;56589;51.992;5.924;2023-01-25T05:49:01;102972.09;;;-0.29;74.56
69402;BME280;56589;51.992;5.924;2023-01-25T05:51:27;102976.38;;;-0.31;74.91
69402;BME280;56589;51.992;5.924;2023-01-25T05:53:56;102979.81;;;-0.30;74.80
69402;BME280;56589;51.992;5.924;2023-01-25T05:56:22;102974.69;;;-0.29;74.89
69402;BME280;56589;51.992;5.924;2023-01-25T05:58:52;102975.53;;;-0.30;74.67
69402;BME280;56589;51.992;5.924;2023-01-25T06:01:21;102980.69;;;-0.30;74.61
69402;BME280;56589;51.992;5.924;2023-01-25T06:03:48;102973.84;;;-0.28;74.74
69402;BME280;56589;51.992;5.924;2023-01-25T06:06:17;102984.16;;;-0.28;75.10
69402;BME280;56589;51.992;5.924;2023-01-25T06:08:44;102975.63;;;-0.24;74.84
69402;BME280;56589;51.992;5.924;2023-01-25T06:11:16;102976.56;;;-0.20;74.72
69402;BME280;56589;51.992;5.924;2023-01-25T06:13:44;102974.78;;;-0.23;74.61
69402;BME280;56589;51.992;5.924;2023-01-25T06:16:10;102974.69;;;-0.27;74.46
69402;BME280;56589;51.992;5.924;2023-01-25T06:18:37;102980.69;;;-0.31;74.82
69402;BME280;56589;51.992;5.924;2023-01-25T06:21:04;102980.59;;;-0.34;74.75
69402;BME280;56589;51.992;5.924;2023-01-25T06:23:31;102972.78;;;-0.39;74.58
69402;BME280;56589;51.992;5.924;2023-01-25T06:25:58;102977.06;;;-0.41;74.98
69402;BME280;56589;51.992;5.924;2023-01-25T06:28:28;102986.59;;;-0.38;74.96
69402;BME280;56589;51.992;5.924;2023-01-25T06:30:54;102981.44;;;-0.37;74.69
69402;BME280;56589;51.992;5.924;2023-01-25T06:33:21;102984.03;;;-0.35;75.06
69402;BME280;56589;51.992;5.924;2023-01-25T06:35:49;102981.53;;;-0.32;75.16
69402;BME280;56589;51.992;5.924;2023-01-25T06:38:16;102984.13;;;-0.29;75.07
69402;BME280;56589;51.992;5.924;2023-01-25T06:40:42;102984.13;;;-0.31;74.54
69402;BME280;56589;51.992;5.924;2023-01-25T06:43:09;102978.94;;;-0.32;74.94
69402;BME280;56589;51.992;5.924;2023-01-25T06:45:39;102969.50;;;-0.30;74.80
69402;BME280;56589;51.992;5.924;2023-01-25T06:48:05;102966.06;;;-0.29;74.69
69402;BME280;56589;51.992;5.924;2023-01-25T06:50:32;102967.81;;;-0.28;74.91
69402;BME280;56589;51.992;5.924;2023-01-25T06:52:58;102972.19;;;-0.24;74.69
69402;BME280;56589;51.992;5.924;2023-01-25T06:55:25;102969.59;;;-0.24;74.89
69402;BME280;56589;51.992;5.924;2023-01-25T06:57:52;102972.19;;;-0.23;75.03
69402;BME280;56589;51.992;5.924;2023-01-25T07:00:20;102967.91;;;-0.21;74.94
69402;BME280;56589;51.992;5.924;2023-01-25T07:02:49;102963.59;;;-0.22;74.94
69402;BME280;56589;51.992;5.924;2023-01-25T07:05:16;102960.16;;;-0.22;74.72
69402;BME280;56589;51.992;5.924;2023-01-25T07:07:45;102957.56;;;-0.22;74.76
69402;BME280;56589;51.992;5.924;2023-01-25T07:10:11;102964.47;;;-0.21;75.15
69402;BME280;56589;51.992;5.924;2023-01-25T07:12:38;102964.53;;;-0.20;74.79
69402;BME280;56589;51.992;5.924;2023-01-25T07:15:05;102969.72;;;-0.16;74.80
69402;BME280;56589;51.992;5.924;2023-01-25T07:17:33;102965.38;;;-0.19;74.80
69402;BME280;56589;51.992;5.924;2023-01-25T07:20:02;102967.09;;;-0.20;74.88
69402;BME280;56589;51.992;5.924;2023-01-25T07:22:28;102963.66;;;-0.18;74.75
69402;BME280;56589;51.992;5.924;2023-01-25T07:24:54;102960.25;;;-0.16;74.89
69402;BME280;56589;51.992;5.924;2023-01-25T07:27:21;102949.06;;;-0.15;74.55
69402;BME280;56589;51.992;5.924;2023-01-25T07:29:48;102946.47;;;-0.16;74.86
69402;BME280;56589;51.992;5.924;2023-01-25T07:32:16;102943.81;;;-0.21;74.90
69402;BME280;56589;51.992;5.924;2023-01-25T07:34:45;102948.97;;;-0.23;75.06
69402;BME280;56589;51.992;5.924;2023-01-25T07:37:15;102951.53;;;-0.24;74.98
69402;BME280;56589;51.992;5.924;2023-01-25T07:39:42;102942.00;;;-0.27;75.10
69402;BME280;56589;51.992;5.924;2023-01-25T07:42:08;102945.50;;;-0.26;75.06
69402;BME280;56589;51.992;5.924;2023-01-25T07:44:35;102943.72;;;-0.29;75.06
69402;BME280;56589;51.992;5.924;2023-01-25T07:47:01;102945.44;;;-0.28;74.99
69402;BME280;56589;51.992;5.924;2023-01-25T07:49:27;102944.56;;;-0.28;75.19
69402;BME280;56589;51.992;5.924;2023-01-25T07:51:53;102945.44;;;-0.28;74.72
69402;BME280;56589;51.992;5.924;2023-01-25T07:54:22;102941.13;;;-0.27;74.95
69402;BME280;56589;51.992;5.924;2023-01-25T07:56:47;102943.78;;;-0.26;75.25
69402;BME280;56589;51.992;5.924;2023-01-25T07:59:13;102940.34;;;-0.23;75.31
69402;BME280;56589;51.992;5.924;2023-01-25T08:01:40;102936.91;;;-0.24;74.77
69402;BME280;56589;51.992;5.924;2023-01-25T08:04:06;102936.81;;;-0.30;74.86
69402;BME280;56589;51.992;5.924;2023-01-25T08:06:34;102934.16;;;-0.33;74.84
69402;BME280;56589;51.992;5.924;2023-01-25T08:09:04;102937.59;;;-0.35;74.99
69402;BME280;56589;51.992;5.924;2023-01-25T08:11:34;102934.97;;;-0.38;74.82
69402;BME280;56589;51.992;5.924;2023-01-25T08:14:01;102928.91;;;-0.40;75.21
69402;BME280;56589;51.992;5.924;2023-01-25T08:16:28;102929.75;;;-0.41;74.97
69402;BME280;56589;51.992;5.924;2023-01-25T08:18:57;102928.00;;;-0.42;74.92
69402;BME280;56589;51.992;5.924;2023-01-25T08:21:26;102929.63;;;-0.49;74.70
69402;BME280;56589;51.992;5.924;2023-01-25T08:23:53;102929.53;;;-0.54;74.89
69402;BME280;56589;51.992;5.924;2023-01-25T08:26:19;102934.69;;;-0.55;75.11
69402;BME280;56589;51.992;5.924;2023-01-25T08:28:48;102928.69;;;-0.53;75.19
69402;BME280;56589;51.992;5.924;2023-01-25T08:31:16;102920.97;;;-0.53;74.95
69402;BME280;56589;51.992;5.924;2023-01-25T08:33:45;102931.28;;;-0.51;75.23
69402;BME280;56589;51.992;5.924;2023-01-25T08:36:11;102924.38;;;-0.54;74.88
69402;BME280;56589;51.992;5.924;2023-01-25T08:38:38;102925.31;;;-0.50;75.13
69402;BME280;56589;51.992;5.924;2023-01-25T08:41:05;102920.19;;;-0.47;75.48
69402;BME280;56589;51.992;5.924;2023-01-25T08:43:31;102920.25;;;-0.44;75.16
69402;BME280;56589;51.992;5.924;2023-01-25T08:46:01;102917.63;;;-0.46;75.07
69402;BME280;56589;51.992;5.924;2023-01-25T08:48:28;102915.88;;;-0.50;74.66
69402;BME280;56589;51.992;5.924;2023-01-25T08:50:54;102913.19;;;-0.54;75.28
69402;BME280;56589;51.992;5.924;2023-01-25T08:53:21;102909.75;;;-0.56;75.07
69402;BME280;56589;51.992;5.924;2023-01-25T08:55:47;102915.69;;;-0.59;75.00
69402;BME280;56589;51.992;5.924;2023-01-25T08:58:14;102912.28;;;-0.58;75.36
69402;BME280;56589;51.992;5.924;2023-01-25T09:00:42;102909.78;;;-0.53;75.21
69402;BME280;56589;51.992;5.924;2023-01-25T09:03:11;102908.91;;;-0.54;75.40
69402;BME280;56589;51.992;5.924;2023-01-25T09:05:37;102903.72;;;-0.57;75.29
69402;BME280;56589;51.992;5.924;2023-01-25T09:08:06;102906.28;;;-0.57;75.08
69402;BME280;56589;51.992;5.924;2023-01-25T09:10:34;102903.72;;;-0.57;75.17
69402;BME280;56589;51.992;5.924;2023-01-25T09:13:01;102898.56;;;-0.57;75.40
69402;BME280;56589;51.992;5.924;2023-01-25T09:15:27;102902.91;;;-0.53;75.55
69402;BME280;56589;51.992;5.924;2023-01-25T09:17:54;102896.88;;;-0.52;75.06
69402;BME280;56589;51.992;5.924;2023-01-25T09:20:24;102899.44;;;-0.55;74.96
69402;BME280;56589;51.992;5.924;2023-01-25T09:22:49;102900.31;;;-0.53;75.61
69402;BME280;56589;51.992;5.924;2023-01-25T09:25:16;102888.34;;;-0.51;75.34
69402;BME280;56589;51.992;5.924;2023-01-25T09:27:42;102889.19;;;-0.50;75.48
69402;BME280;56589;51.992;5.924;2023-01-25T09:30:09;102885.84;;;-0.44;75.59
69402;BME280;56589;51.992;5.924;2023-01-25T09:32:36;102891.03;;;-0.41;75.40
69402;BME280;56589;51.992;5.924;2023-01-25T09:35:03;102887.59;;;-0.42;75.21
69402;BME280;56589;51.992;5.924;2023-01-25T09:37:33;102885.00;;;-0.43;75.02
69402;BME280;56589;51.992;5.924;2023-01-25T09:40:00;102885.78;;;-0.46;75.30
69402;BME280;56589;51.992;5.924;2023-01-25T09:42:42;102889.25;;;-0.46;75.12
69402;BME280;56589;51.992;5.924;2023-01-25T09:45:30;102888.34;;;-0.51;74.88
69402;BME280;56589;51.992;5.924;2023-01-25T09:48:02;102883.09;;;-0.55;75.31
69402;BME280;56589;51.992;5.924;2023-01-25T09:50:37;102882.25;;;-0.54;75.45
69402;BME280;56589;51.992;5.924;2023-01-25T09:53:34;102886.56;;;-0.52;75.39
69402;BME280;56589;51.992;5.924;2023-01-25T09:56:10;102878.81;;;-0.52;75.33
69402;BME280;56589;51.992;5.924;2023-01-25T09:58:44;102884.06;;;-0.49;75.17
69402;BME280;56589;51.992;5.924;2023-01-25T10:01:24;102880.63;;;-0.48;75.30
69402;BME280;56589;51.992;5.924;2023-01-25T10:04:00;102877.19;;;-0.47;75.19
69402;BME280;56589;51.992;5.924;2023-01-25T10:06:38;102878.97;;;-0.42;75.64
69402;BME280;56589;51.992;5.924;2023-01-25T10:09:20;102878.16;;;-0.40;75.54
69402;BME280;56589;51.992;5.924;2023-01-25T10:11:56;102869.59;;;-0.37;75.60
69402;BME280;56589;51.992;5.924;2023-01-25T10:14:29;102878.28;;;-0.32;75.46
69402;BME280;56589;51.992;5.924;2023-01-25T10:17:03;102872.31;;;-0.28;75.19
69402;BME280;56589;51.992;5.924;2023-01-25T10:19:43;102872.31;;;-0.28;75.26
69402;BME280;56589;51.992;5.924;2023-01-25T10:22:23;102864.63;;;-0.25;75.50
69402;BME280;56589;51.992;5.924;2023-01-25T10:25:16;102864.66;;;-0.21;75.47
69402;BME280;56589;51.992;5.924;2023-01-25T10:28:00;102859.56;;;-0.17;75.36
69402;BME280;56589;51.992;5.924;2023-01-25T10:30:53;102857.03;;;-0.13;75.18
69402;BME280;56589;51.992;5.924;2023-01-25T10:33:27;102852.72;;;-0.14;75.20
69402;BME280;56589;51.992;5.924;2023-01-25T10:35:57;102849.31;;;-0.10;75.14
69402;BME280;56589;51.992;5.924;2023-01-25T10:38:31;102843.34;;;-0.07;75.03
69402;BME280;56589;51.992;5.924;2023-01-25T10:41:07;102823.50;;;-0.10;74.90
69402;BME280;56589;51.992;5.924;2023-01-25T10:43:37;102821.84;;;-0.08;75.01
69402;BME280;56589;51.992;5.924;2023-01-25T10:46:09;102822.69;;;-0.07;75.11
69402;BME280;56589;51.992;5.924;2023-01-25T10:48:44;102813.22;;;-0.07;74.65
69402;BME280;56589;51.992;5.924;2023-01-25T10:51:27;102804.56;;;-0.09;75.04
69402;BME280;56589;51.992;5.924;2023-01-25T10:53:58;102798.56;;;-0.09;75.14
69402;BME280;56589;51.992;5.924;2023-01-25T10:56:31;102796.81;;;-0.12;74.88
69402;BME280;56589;51.992;5.924;2023-01-25T10:59:13;102802.78;;;-0.14;74.45
69402;BME280;56589;51.992;5.924;2023-01-25T11:01:42;102799.25;;;-0.24;75.07
69402;BME280;56589;51.992;5.924;2023-01-25T11:04:24;102791.50;;;-0.23;75.02
69402;BME280;56589;51.992;5.924;2023-01-25T11:06:55;102780.38;;;-0.20;75.25
69402;BME280;56589;51.992;5.924;2023-01-25T11:09:34;102780.41;;;-0.15;75.02
69402;BME280;56589;51.992;5.924;2023-01-25T11:12:16;102759.72;;;-0.18;74.92
69402;BME280;56589;51.992;5.924;2023-01-25T11:14:45;102755.44;;;-0.15;75.02
69402;BME280;56589;51.992;5.924;2023-01-25T11:17:24;102749.47;;;-0.12;75.26
69402;BME280;56589;51.992;5.924;2023-01-25T11:20:17;102749.56;;;-0.06;74.88
69402;BME280;56589;51.992;5.924;2023-01-25T11:22:50;102740.97;;;-0.02;75.25
69402;BME280;56589;51.992;5.924;2023-01-25T11:25:25;102737.56;;;0.00;75.36
69402;BME280;56589;51.992;5.924;2023-01-25T11:28:09;102732.41;;;0.03;75.00
69402;BME280;56589;51.992;5.924;2023-01-25T11:30:37;102732.41;;;-0.01;74.88
69402;BME280;56589;51.992;5.924;2023-01-25T11:33:09;102719.44;;;-0.04;74.77
69402;BME280;56589;51.992;5.924;2023-01-25T11:35:39;102709.97;;;-0.02;75.21
69402;BME280;56589;51.992;5.924;2023-01-25T11:38:21;102712.56;;;-0.04;74.56
69402;BME280;56589;51.992;5.924;2023-01-25T11:40:50;102709.97;;;-0.05;74.81
69402;BME280;56589;51.992;5.924;2023-01-25T11:43:42;102698.78;;;-0.06;74.89
69402;BME280;56589;51.992;5.924;2023-01-25T11:46:31;102693.63;;;-0.03;75.20
69402;BME280;56589;51.992;5.924;2023-01-25T11:49:23;102680.75;;;-0.01;75.10
69402;BME280;56589;51.992;5.924;2023-01-25T11:52:04;102679.00;;;-0.04;74.86
69402;BME280;56589;51.992;5.924;2023-01-25T11:54:52;102674.75;;;-0.00;75.25
69402;BME280;56589;51.992;5.924;2023-01-25T11:57:43;102660.97;;;0.02;75.10
69402;BME280;56589;51.992;5.924;2023-01-25T12:00:47;102652.41;;;0.05;75.01
69402;BME280;56589;51.992;5.924;2023-01-25T12:06:56;102645.50;;;0.04;74.65
69402;BME280;56589;51.992;5.924;2023-01-25T12:09:43;102630.00;;;0.04;74.83
69402;BME280;56589;51.992;5.924;2023-01-25T12:12:28;102625.72;;;0.04;74.87
69402;BME280;56589;51.992;5.924;2023-01-25T12:18:59;102615.28;;;-0.05;74.85
69402;BME280;56589;51.992;5.924;2023-01-25T12:21:50;102608.34;;;-0.10;74.88
69402;BME280;56589;51.992;5.924;2023-01-25T12:24:35;102598.94;;;-0.07;75.27
69402;BME280;56589;51.992;5.924;2023-01-25T12:27:18;102597.28;;;-0.00;75.07
69402;BME280;56589;51.992;5.924;2023-01-25T12:30:01;102591.28;;;0.05;75.10
69402;BME280;56589;51.992;5.924;2023-01-25T12:32:38;102588.72;;;0.05;75.03
69402;BME280;56589;51.992;5.924;2023-01-25T12:35:22;102579.19;;;-0.00;74.57
69402;BME280;56589;51.992;5.924;2023-01-25T12:38:02;102567.97;;;-0.02;74.84
69402;BME280;56589;51.992;5.924;2023-01-25T12:40:43;102564.56;;;-0.01;74.98
69402;BME280;56589;51.992;5.924;2023-01-25T12:43:19;102566.25;;;-0.05;74.56
69402;BME280;56589;51.992;5.924;2023-01-25T12:45:54;102559.34;;;-0.07;74.74
69402;BME280;56589;51.992;5.924;2023-01-25T12:48:27;102555.91;;;-0.08;74.92
69402;BME280;56589;51.992;5.924;2023-01-25T12:51:00;102559.34;;;-0.06;74.97
69402;BME280;56589;51.992;5.924;2023-01-25T12:53:32;102552.50;;;-0.01;74.79
69402;BME280;56589;51.992;5.924;2023-01-25T12:56:05;102542.16;;;-0.02;74.91
69402;BME280;56589;51.992;5.924;2023-01-25T12:58:39;102539.56;;;-0.04;74.98
69402;BME280;56589;51.992;5.924;2023-01-25T13:01:22;102537.78;;;-0.09;74.79
69402;BME280;56589;51.992;5.924;2023-01-25T13:04:09;102535.16;;;-0.17;74.77
69402;BME280;56589;51.992;5.924;2023-01-25T13:06:58;102535.16;;;-0.20;74.89
69402;BME280;56589;51.992;5.924;2023-01-25T13:09:40;102529.09;;;-0.22;75.00
69402;BME280;56589;51.992;5.924;2023-01-25T13:12:14;102517.91;;;-0.21;74.75
69402;BME280;56589;51.992;5.924;2023-01-25T13:14:42;102517.06;;;-0.20;74.98
69402;BME280;56589;51.992;5.924;2023-01-25T13:17:11;102517.94;;;-0.16;74.88